Pendleton, OR

9:26 AM PDT on September 21, 2014 (GMT -0700)
Sun Ridge Estates | Change Station
CLOSE
Current Station
Personal Weather Station
Location: Pendleton, OR
Elevation: 1210 ft
Nearby Weather Stations

Elev 1210 ft 45.65 °N, 118.79 °W | Updated 11 minutes ago

Clear
Clear
65.4 °F
Feels Like 65.4 °F
N
2.0
Wind Variable Wind from NW
Gusts 3.0 mph

Today
High -- | Low -- °F
--% Chance of Precip.
Yesterday
High -- | Low -- °F
Precip. -- in
6:40 AM 6:54 PM
Waning Crescent, 6% visible
Pressure 29.94 in
Visibility 10.0 miles
Clouds Clear
Dew Point 49 °F
Humidity 55%
Rainfall 0.00 in
Snow Depth 0 in , 0 in , 0 in
UV 2 out of 12
Pollen 5.40 out of 12
Air Quality Not available.
Flu Activity Not available.
METAR KPDT 211553Z 14005KT 10SM CLR 18/07 A2997 RMK AO2 SLP136 T01780072

More Conditions Fewer Conditions

Pressure 29.94 in
Visibility 10.0 miles
Clouds Clear
Dew Point 49 °F
Humidity 55%
Rainfall 0.00 in
Snow Depth 0 in , 0 in , 0 in
UV 2 out of 12
Pollen 5.40 out of 12
Air Quality Not available.
Flu Activity Not available.
METAR KPDT 211553Z 14005KT 10SM CLR 18/07 A2997 RMK AO2 SLP136 T01780072

More Conditions Fewer Conditions

10-Day Weather Forecast

Almanac

Astronomy

Sep. 21, 2014 Rise Set
Actual Time 6:40 AM PDT 6:54 PM PDT
Civil Twilight 6:11 AM PDT 7:23 PM PDT
Nautical Twilight 5:36 AM PDT 7:58 PM PDT
Astronomical Twilight 5:00 AM PDT 8:34 PM PDT
Moon 4:13 AM PDT 5:37 PM PDT
Length of Visible Light 13h 12m
Length of Day
12h 13m
Tomorrow will be 3m 11s shorter.
Waning Crescent, 6% of the Moon is Illuminated
Today
Waning Crescent
Sep 24
New
Oct 1
First Quarter
Oct 8
Full
Oct 15
Last Quarter

Today's Extremes

State Highs State Lows

Community

WunderPhotos

Upload Photos

1,755,183 photos uploaded!

Nearby

Snow Depth

Station Depth Elevation
Mckenzie 0 in 4800 ft
Diamond Lake 0 in 5315 ft
Holland Meadows 0 in 4900 ft
Annie Springs 0 in 6020 ft
Peavine Ridge 0 in 3500 ft

Earthquake Activity

City Distance Mag. Time & Date
No recent earthquake activity has been reported nearby.
Minimum magnitude displayed is 2.5.

Coastal Water Temperatures

Place Temperature
No Stations Reporting

Nearby Weather Stations